Aérodrome :
LOGIN :

S'inscrire | Disclaimer

   EN    FR    IT 

 










Légende :    VFR   VFR Marginal   IFR   IFR Intensif   IFR Très Intensif
Visi : 
Plafond : 
>= 8 km
>= 3000ft
5 à 8 km
1000 à 3000 ft
1500m à 5 km
500 à 1000 ft
800 à 1500m
200 à 500 ft
< 800m
< 200 ft
Symboles :   Orages  Brouillard  Fortes neiges  Fortes précipitations  Vent > 20 kt
SIGMETs :   Divers  Orages  Givrage  Turbulence  Onde Orograph.  Cendres Volcan.






- Altitude de l'aérodrome : 82 ft
- Code IATA : QIE


LFMI - Istres

DERNIER METAR :
  • 042200Z AUTO 15003KT 3400 BR OVC039 10/10 Q1019 TEMPO 0800 FG VV///

METARs EXPIRÉS :
  • 042130Z AUTO 12002KT 4000 BR OVC038 10/09 Q1019 TEMPO 0800 FG VV///
  • 042100Z AUTO 11003KT 3800 BR OVC039 09/09 Q1020 TEMPO 0800 FG VV///
  • 042030Z AUTO 09002KT 3400 BR FEW015 SCT025 OVC039 09/09 Q1020 TEMPO 0800 FG VV///
  • 042000Z AUTO 08002KT 3000 BR FEW017 BKN035 09/08 Q1020 BECMG 9999 NSW
  • 041930Z AUTO 07003KT 2100 0750 R15/1500D R33/2400U BCFG BKN035 08/08 Q1020 BECMG 9999 NSW

TAF TAF LFMI
Valide du 04 à 21h jusqu'au 05 à 21h UTC


042000Z 0421/0521 VRB02KT 9999 SCT015 TX14/0513Z TN07/0505Z
TEMPO 0421/0507 4000 BR BKN014
PROB30
TEMPO 0422/0505 0800 FG VV///
BECMG 0507/0509 34012KT



MET'MAP, la Météo Aéronautique d'un coup d'oeil ! - Copyright ORBIFLY Décembre 2007 - Disclaimer

ORBIFLY MET'MAP TEAM :

Programmation & Développement : Alexandra Zaïnal
Sur une idée originale de : Baudouin d'Aumeries
Assistance à la programmation : Marc-Olivier Méhu
Soutien technique & logistique : Manuel Goepfert

Contact : metmap@orbifly.com




SOURCES & CREDITS :

   NOAA